sensor_id;sensor_type;location;lat;lon;timestamp;P1;durP1;ratioP1;P2;durP2;ratioP2
13571;SDS011;6857;53.484;10.216;2023-04-06T00:00:59;7.90;;;3.87;;
13571;SDS011;6857;53.484;10.216;2023-04-06T00:03:25;6.37;;;3.40;;
13571;SDS011;6857;53.484;10.216;2023-04-06T00:05:51;7.33;;;3.70;;
13571;SDS011;6857;53.484;10.216;2023-04-06T00:08:17;5.37;;;3.37;;
13571;SDS011;6857;53.484;10.216;2023-04-06T00:10:43;6.13;;;3.67;;
13571;SDS011;6857;53.484;10.216;2023-04-06T00:13:09;6.57;;;3.87;;
13571;SDS011;6857;53.484;10.216;2023-04-06T00:15:35;5.33;;;3.50;;
13571;SDS011;6857;53.484;10.216;2023-04-06T00:18:01;4.93;;;3.43;;
13571;SDS011;6857;53.484;10.216;2023-04-06T00:20:27;5.73;;;3.40;;
13571;SDS011;6857;53.484;10.216;2023-04-06T00:22:54;5.03;;;3.30;;
13571;SDS011;6857;53.484;10.216;2023-04-06T00:25:20;4.87;;;3.10;;
13571;SDS011;6857;53.484;10.216;2023-04-06T00:27:46;5.20;;;3.30;;
13571;SDS011;6857;53.484;10.216;2023-04-06T00:30:12;5.00;;;3.20;;
13571;SDS011;6857;53.484;10.216;2023-04-06T00:32:38;3.77;;;2.90;;
13571;SDS011;6857;53.484;10.216;2023-04-06T00:35:04;5.50;;;3.37;;
13571;SDS011;6857;53.484;10.216;2023-04-06T00:37:30;5.50;;;3.50;;
13571;SDS011;6857;53.484;10.216;2023-04-06T00:39:56;5.97;;;3.63;;
13571;SDS011;6857;53.484;10.216;2023-04-06T00:42:22;5.23;;;3.07;;
13571;SDS011;6857;53.484;10.216;2023-04-06T00:45:00;5.07;;;2.77;;
13571;SDS011;6857;53.484;10.216;2023-04-06T00:47:27;7.43;;;3.27;;
13571;SDS011;6857;53.484;10.216;2023-04-06T00:49:53;4.27;;;2.97;;
13571;SDS011;6857;53.484;10.216;2023-04-06T00:52:20;4.80;;;3.03;;
13571;SDS011;6857;53.484;10.216;2023-04-06T00:54:46;5.13;;;3.37;;
13571;SDS011;6857;53.484;10.216;2023-04-06T00:57:12;4.37;;;3.10;;
13571;SDS011;6857;53.484;10.216;2023-04-06T00:59:39;4.93;;;2.83;;
13571;SDS011;6857;53.484;10.216;2023-04-06T01:02:05;6.60;;;3.40;;
13571;SDS011;6857;53.484;10.216;2023-04-06T01:04:31;5.70;;;3.53;;
13571;SDS011;6857;53.484;10.216;2023-04-06T01:06:57;4.07;;;3.00;;
13571;SDS011;6857;53.484;10.216;2023-04-06T01:09:23;5.73;;;3.07;;
13571;SDS011;6857;53.484;10.216;2023-04-06T01:11:49;6.17;;;2.90;;
13571;SDS011;6857;53.484;10.216;2023-04-06T01:14:15;5.00;;;2.80;;
13571;SDS011;6857;53.484;10.216;2023-04-06T01:16:41;5.80;;;3.03;;
13571;SDS011;6857;53.484;10.216;2023-04-06T01:19:11;3.33;;;2.40;;
13571;SDS011;6857;53.484;10.216;2023-04-06T01:21:37;4.00;;;2.57;;
13571;SDS011;6857;53.484;10.216;2023-04-06T01:24:04;4.17;;;2.40;;
13571;SDS011;6857;53.484;10.216;2023-04-06T01:26:31;6.20;;;2.90;;
13571;SDS011;6857;53.484;10.216;2023-04-06T01:28:57;5.30;;;3.07;;
13571;SDS011;6857;53.484;10.216;2023-04-06T01:31:24;4.00;;;2.70;;
13571;SDS011;6857;53.484;10.216;2023-04-06T01:33:50;4.53;;;2.93;;
13571;SDS011;6857;53.484;10.216;2023-04-06T01:36:16;5.17;;;3.07;;
13571;SDS011;6857;53.484;10.216;2023-04-06T01:38:42;4.30;;;2.80;;
13571;SDS011;6857;53.484;10.216;2023-04-06T01:41:08;3.70;;;2.87;;
13571;SDS011;6857;53.484;10.216;2023-04-06T01:43:34;6.67;;;3.00;;
13571;SDS011;6857;53.484;10.216;2023-04-06T01:46:00;6.00;;;3.20;;
13571;SDS011;6857;53.484;10.216;2023-04-06T01:48:27;6.23;;;3.07;;
13571;SDS011;6857;53.484;10.216;2023-04-06T01:50:53;12.07;;;3.93;;
13571;SDS011;6857;53.484;10.216;2023-04-06T01:53:20;5.30;;;3.73;;
13571;SDS011;6857;53.484;10.216;2023-04-06T01:55:46;5.87;;;3.63;;
13571;SDS011;6857;53.484;10.216;2023-04-06T01:58:12;10.67;;;4.73;;
13571;SDS011;6857;53.484;10.216;2023-04-06T02:00:38;8.03;;;4.17;;
13571;SDS011;6857;53.484;10.216;2023-04-06T02:03:04;6.93;;;5.10;;
13571;SDS011;6857;53.484;10.216;2023-04-06T02:05:31;4.13;;;3.27;;
13571;SDS011;6857;53.484;10.216;2023-04-06T02:07:58;5.43;;;3.10;;
13571;SDS011;6857;53.484;10.216;2023-04-06T02:10:24;6.63;;;3.40;;
13571;SDS011;6857;53.484;10.216;2023-04-06T02:12:50;6.00;;;3.73;;
13571;SDS011;6857;53.484;10.216;2023-04-06T02:15:16;6.23;;;3.80;;
13571;SDS011;6857;53.484;10.216;2023-04-06T02:17:42;6.27;;;3.87;;
13571;SDS011;6857;53.484;10.216;2023-04-06T02:20:08;6.20;;;4.10;;
13571;SDS011;6857;53.484;10.216;2023-04-06T02:22:37;6.00;;;3.70;;
13571;SDS011;6857;53.484;10.216;2023-04-06T02:25:03;7.67;;;4.27;;
13571;SDS011;6857;53.484;10.216;2023-04-06T02:27:29;6.97;;;4.30;;
13571;SDS011;6857;53.484;10.216;2023-04-06T02:29:55;5.80;;;4.00;;
13571;SDS011;6857;53.484;10.216;2023-04-06T02:32:21;5.77;;;4.10;;
13571;SDS011;6857;53.484;10.216;2023-04-06T02:34:47;10.23;;;4.63;;
13571;SDS011;6857;53.484;10.216;2023-04-06T02:37:13;8.67;;;4.93;;
13571;SDS011;6857;53.484;10.216;2023-04-06T02:39:39;6.60;;;4.23;;
13571;SDS011;6857;53.484;10.216;2023-04-06T02:42:05;6.67;;;3.73;;
13571;SDS011;6857;53.484;10.216;2023-04-06T02:44:31;6.27;;;4.10;;
13571;SDS011;6857;53.484;10.216;2023-04-06T02:46:57;6.60;;;3.97;;
13571;SDS011;6857;53.484;10.216;2023-04-06T02:49:23;6.73;;;4.37;;
13571;SDS011;6857;53.484;10.216;2023-04-06T02:51:49;4.77;;;3.70;;
13571;SDS011;6857;53.484;10.216;2023-04-06T02:54:15;6.07;;;4.10;;
13571;SDS011;6857;53.484;10.216;2023-04-06T02:56:41;7.53;;;4.27;;
13571;SDS011;6857;53.484;10.216;2023-04-06T02:59:07;5.83;;;4.27;;
13571;SDS011;6857;53.484;10.216;2023-04-06T03:01:33;11.67;;;5.17;;
13571;SDS011;6857;53.484;10.216;2023-04-06T03:03:59;5.60;;;3.63;;
13571;SDS011;6857;53.484;10.216;2023-04-06T03:06:25;6.63;;;4.70;;
13571;SDS011;6857;53.484;10.216;2023-04-06T03:08:51;7.33;;;4.47;;
13571;SDS011;6857;53.484;10.216;2023-04-06T03:11:17;6.17;;;4.30;;
13571;SDS011;6857;53.484;10.216;2023-04-06T03:13:43;8.33;;;4.97;;
13571;SDS011;6857;53.484;10.216;2023-04-06T03:16:09;6.63;;;4.17;;
13571;SDS011;6857;53.484;10.216;2023-04-06T03:18:35;7.47;;;5.20;;
13571;SDS011;6857;53.484;10.216;2023-04-06T03:21:01;8.30;;;4.63;;
13571;SDS011;6857;53.484;10.216;2023-04-06T03:23:27;7.10;;;4.60;;
13571;SDS011;6857;53.484;10.216;2023-04-06T03:25:53;11.50;;;4.63;;
13571;SDS011;6857;53.484;10.216;2023-04-06T03:28:19;7.63;;;4.60;;
13571;SDS011;6857;53.484;10.216;2023-04-06T03:30:45;8.57;;;5.10;;
13571;SDS011;6857;53.484;10.216;2023-04-06T03:33:11;10.07;;;5.63;;
13571;SDS011;6857;53.484;10.216;2023-04-06T03:35:37;10.87;;;6.20;;
13571;SDS011;6857;53.484;10.216;2023-04-06T03:38:03;10.97;;;5.80;;
13571;SDS011;6857;53.484;10.216;2023-04-06T03:40:30;10.07;;;6.70;;
13571;SDS011;6857;53.484;10.216;2023-04-06T03:42:56;10.83;;;6.40;;
13571;SDS011;6857;53.484;10.216;2023-04-06T03:45:22;11.20;;;5.57;;
13571;SDS011;6857;53.484;10.216;2023-04-06T03:47:48;10.47;;;5.73;;
13571;SDS011;6857;53.484;10.216;2023-04-06T03:50:14;8.60;;;5.73;;
13571;SDS011;6857;53.484;10.216;2023-04-06T03:52:40;9.63;;;5.83;;
13571;SDS011;6857;53.484;10.216;2023-04-06T03:55:06;17.83;;;8.37;;
13571;SDS011;6857;53.484;10.216;2023-04-06T03:57:32;14.93;;;9.10;;
13571;SDS011;6857;53.484;10.216;2023-04-06T03:59:58;10.30;;;5.50;;
13571;SDS011;6857;53.484;10.216;2023-04-06T04:02:25;12.30;;;6.37;;
13571;SDS011;6857;53.484;10.216;2023-04-06T04:04:51;10.50;;;6.03;;
13571;SDS011;6857;53.484;10.216;2023-04-06T04:07:17;11.03;;;6.20;;
13571;SDS011;6857;53.484;10.216;2023-04-06T04:09:43;10.57;;;6.77;;
13571;SDS011;6857;53.484;10.216;2023-04-06T04:12:09;7.43;;;5.73;;
13571;SDS011;6857;53.484;10.216;2023-04-06T04:14:35;7.23;;;5.30;;
13571;SDS011;6857;53.484;10.216;2023-04-06T04:17:01;9.40;;;6.00;;
13571;SDS011;6857;53.484;10.216;2023-04-06T04:19:27;14.17;;;5.80;;
13571;SDS011;6857;53.484;10.216;2023-04-06T04:21:52;10.87;;;5.53;;
13571;SDS011;6857;53.484;10.216;2023-04-06T04:24:18;15.47;;;6.33;;
13571;SDS011;6857;53.484;10.216;2023-04-06T04:26:44;10.13;;;5.53;;
13571;SDS011;6857;53.484;10.216;2023-04-06T04:29:10;9.20;;;5.53;;
13571;SDS011;6857;53.484;10.216;2023-04-06T04:31:36;7.70;;;4.93;;
13571;SDS011;6857;53.484;10.216;2023-04-06T04:34:02;9.97;;;4.73;;
13571;SDS011;6857;53.484;10.216;2023-04-06T04:36:28;6.03;;;4.57;;
13571;SDS011;6857;53.484;10.216;2023-04-06T04:38:55;8.53;;;5.30;;
13571;SDS011;6857;53.484;10.216;2023-04-06T04:41:21;8.03;;;5.03;;
13571;SDS011;6857;53.484;10.216;2023-04-06T04:43:46;9.37;;;5.67;;
13571;SDS011;6857;53.484;10.216;2023-04-06T04:46:12;10.77;;;6.90;;
13571;SDS011;6857;53.484;10.216;2023-04-06T04:48:38;11.03;;;6.77;;
13571;SDS011;6857;53.484;10.216;2023-04-06T04:51:04;9.07;;;4.40;;
13571;SDS011;6857;53.484;10.216;2023-04-06T04:53:30;10.07;;;4.60;;
13571;SDS011;6857;53.484;10.216;2023-04-06T04:55:56;6.03;;;4.23;;
13571;SDS011;6857;53.484;10.216;2023-04-06T04:58:22;7.73;;;4.00;;
13571;SDS011;6857;53.484;10.216;2023-04-06T05:00:48;8.70;;;4.33;;
13571;SDS011;6857;53.484;10.216;2023-04-06T05:03:20;11.37;;;5.53;;
13571;SDS011;6857;53.484;10.216;2023-04-06T05:05:47;11.13;;;5.50;;
13571;SDS011;6857;53.484;10.216;2023-04-06T05:08:13;8.47;;;5.50;;
13571;SDS011;6857;53.484;10.216;2023-04-06T05:10:39;9.87;;;5.37;;
13571;SDS011;6857;53.484;10.216;2023-04-06T05:13:05;9.27;;;5.60;;
13571;SDS011;6857;53.484;10.216;2023-04-06T05:15:31;12.57;;;5.63;;
13571;SDS011;6857;53.484;10.216;2023-04-06T05:17:59;13.57;;;5.83;;
13571;SDS011;6857;53.484;10.216;2023-04-06T05:20:25;7.33;;;4.17;;
13571;SDS011;6857;53.484;10.216;2023-04-06T05:22:51;8.03;;;4.47;;
13571;SDS011;6857;53.484;10.216;2023-04-06T05:25:17;10.30;;;5.07;;
13571;SDS011;6857;53.484;10.216;2023-04-06T05:27:43;7.57;;;4.63;;
13571;SDS011;6857;53.484;10.216;2023-04-06T05:30:09;8.40;;;4.53;;
13571;SDS011;6857;53.484;10.216;2023-04-06T05:32:35;11.77;;;5.53;;
13571;SDS011;6857;53.484;10.216;2023-04-06T05:35:01;9.63;;;5.27;;
13571;SDS011;6857;53.484;10.216;2023-04-06T05:37:27;13.63;;;5.93;;
13571;SDS011;6857;53.484;10.216;2023-04-06T05:39:53;11.97;;;5.20;;
13571;SDS011;6857;53.484;10.216;2023-04-06T05:42:19;7.40;;;5.13;;
13571;SDS011;6857;53.484;10.216;2023-04-06T05:44:45;19.73;;;6.50;;
13571;SDS011;6857;53.484;10.216;2023-04-06T05:47:11;12.17;;;6.30;;
13571;SDS011;6857;53.484;10.216;2023-04-06T05:49:37;8.67;;;5.37;;
13571;SDS011;6857;53.484;10.216;2023-04-06T05:52:03;12.73;;;5.90;;
13571;SDS011;6857;53.484;10.216;2023-04-06T05:54:29;10.50;;;6.00;;
13571;SDS011;6857;53.484;10.216;2023-04-06T05:56:55;12.00;;;7.33;;
13571;SDS011;6857;53.484;10.216;2023-04-06T05:59:21;13.87;;;6.97;;
13571;SDS011;6857;53.484;10.216;2023-04-06T06:01:48;11.17;;;6.63;;
13571;SDS011;6857;53.484;10.216;2023-04-06T06:04:14;10.30;;;7.60;;
13571;SDS011;6857;53.484;10.216;2023-04-06T06:06:40;10.17;;;6.80;;
13571;SDS011;6857;53.484;10.216;2023-04-06T06:09:06;10.50;;;6.57;;
13571;SDS011;6857;53.484;10.216;2023-04-06T06:11:32;8.10;;;6.47;;
13571;SDS011;6857;53.484;10.216;2023-04-06T06:13:58;11.73;;;6.27;;
13571;SDS011;6857;53.484;10.216;2023-04-06T06:16:24;7.87;;;6.63;;
13571;SDS011;6857;53.484;10.216;2023-04-06T06:18:50;11.73;;;6.70;;
13571;SDS011;6857;53.484;10.216;2023-04-06T06:21:16;9.37;;;7.00;;
13571;SDS011;6857;53.484;10.216;2023-04-06T06:23:42;13.37;;;6.83;;
13571;SDS011;6857;53.484;10.216;2023-04-06T06:26:08;11.27;;;6.70;;
13571;SDS011;6857;53.484;10.216;2023-04-06T06:28:34;15.67;;;8.27;;
13571;SDS011;6857;53.484;10.216;2023-04-06T06:31:01;17.63;;;8.37;;
13571;SDS011;6857;53.484;10.216;2023-04-06T06:33:27;18.83;;;8.40;;
13571;SDS011;6857;53.484;10.216;2023-04-06T06:35:53;12.97;;;7.83;;
13571;SDS011;6857;53.484;10.216;2023-04-06T06:38:19;14.30;;;7.60;;
13571;SDS011;6857;53.484;10.216;2023-04-06T06:40:46;11.87;;;6.67;;
13571;SDS011;6857;53.484;10.216;2023-04-06T06:43:12;8.80;;;6.90;;
13571;SDS011;6857;53.484;10.216;2023-04-06T06:45:38;8.13;;;6.37;;
13571;SDS011;6857;53.484;10.216;2023-04-06T06:48:04;14.13;;;6.83;;
13571;SDS011;6857;53.484;10.216;2023-04-06T06:50:30;8.80;;;6.73;;
13571;SDS011;6857;53.484;10.216;2023-04-06T06:52:56;8.80;;;7.07;;
13571;SDS011;6857;53.484;10.216;2023-04-06T06:55:22;9.83;;;6.30;;
13571;SDS011;6857;53.484;10.216;2023-04-06T06:57:48;11.57;;;6.63;;
13571;SDS011;6857;53.484;10.216;2023-04-06T07:00:14;10.43;;;6.37;;
13571;SDS011;6857;53.484;10.216;2023-04-06T07:02:40;8.67;;;6.20;;
13571;SDS011;6857;53.484;10.216;2023-04-06T07:05:06;9.13;;;6.43;;
13571;SDS011;6857;53.484;10.216;2023-04-06T07:07:32;10.93;;;5.60;;
13571;SDS011;6857;53.484;10.216;2023-04-06T07:09:59;7.57;;;5.77;;
13571;SDS011;6857;53.484;10.216;2023-04-06T07:12:25;7.37;;;5.30;;
13571;SDS011;6857;53.484;10.216;2023-04-06T07:14:51;10.03;;;6.70;;
13571;SDS011;6857;53.484;10.216;2023-04-06T07:17:17;13.33;;;6.60;;
13571;SDS011;6857;53.484;10.216;2023-04-06T07:19:46;8.93;;;5.50;;
13571;SDS011;6857;53.484;10.216;2023-04-06T07:22:12;7.27;;;5.87;;
13571;SDS011;6857;53.484;10.216;2023-04-06T07:24:41;8.90;;;5.40;;
13571;SDS011;6857;53.484;10.216;2023-04-06T07:27:08;10.93;;;6.00;;
13571;SDS011;6857;53.484;10.216;2023-04-06T07:29:38;7.20;;;5.50;;
13571;SDS011;6857;53.484;10.216;2023-04-06T07:32:07;8.53;;;5.80;;
13571;SDS011;6857;53.484;10.216;2023-04-06T07:34:34;8.43;;;5.13;;
13571;SDS011;6857;53.484;10.216;2023-04-06T07:37:00;7.90;;;5.70;;
13571;SDS011;6857;53.484;10.216;2023-04-06T07:39:32;9.17;;;5.53;;
13571;SDS011;6857;53.484;10.216;2023-04-06T07:41:59;7.63;;;5.07;;
13571;SDS011;6857;53.484;10.216;2023-04-06T07:44:25;8.07;;;4.77;;
13571;SDS011;6857;53.484;10.216;2023-04-06T07:46:51;9.67;;;4.60;;
13571;SDS011;6857;53.484;10.216;2023-04-06T07:49:17;8.53;;;4.67;;
13571;SDS011;6857;53.484;10.216;2023-04-06T07:51:43;7.00;;;4.70;;
13571;SDS011;6857;53.484;10.216;2023-04-06T07:54:09;6.27;;;4.10;;
13571;SDS011;6857;53.484;10.216;2023-04-06T07:56:35;7.90;;;4.70;;
13571;SDS011;6857;53.484;10.216;2023-04-06T07:59:01;6.50;;;4.27;;
13571;SDS011;6857;53.484;10.216;2023-04-06T08:01:28;5.57;;;3.90;;
13571;SDS011;6857;53.484;10.216;2023-04-06T08:03:55;5.10;;;4.00;;
13571;SDS011;6857;53.484;10.216;2023-04-06T08:06:21;6.57;;;4.00;;
13571;SDS011;6857;53.484;10.216;2023-04-06T08:08:47;8.60;;;4.87;;
13571;SDS011;6857;53.484;10.216;2023-04-06T08:11:13;6.47;;;4.20;;
13571;SDS011;6857;53.484;10.216;2023-04-06T08:13:39;5.80;;;3.90;;
13571;SDS011;6857;53.484;10.216;2023-04-06T08:16:05;7.43;;;4.10;;
13571;SDS011;6857;53.484;10.216;2023-04-06T08:18:31;6.73;;;4.50;;
13571;SDS011;6857;53.484;10.216;2023-04-06T08:21:00;9.00;;;4.80;;
13571;SDS011;6857;53.484;10.216;2023-04-06T08:23:26;16.43;;;11.60;;
13571;SDS011;6857;53.484;10.216;2023-04-06T08:25:53;14.77;;;8.50;;
13571;SDS011;6857;53.484;10.216;2023-04-06T08:28:19;7.10;;;4.90;;
13571;SDS011;6857;53.484;10.216;2023-04-06T08:30:46;6.57;;;4.80;;
13571;SDS011;6857;53.484;10.216;2023-04-06T08:33:12;5.63;;;4.00;;
13571;SDS011;6857;53.484;10.216;2023-04-06T08:35:38;6.00;;;4.53;;
13571;SDS011;6857;53.484;10.216;2023-04-06T08:38:05;9.97;;;5.30;;
13571;SDS011;6857;53.484;10.216;2023-04-06T08:40:35;7.70;;;4.90;;
13571;SDS011;6857;53.484;10.216;2023-04-06T08:43:01;7.80;;;4.60;;
13571;SDS011;6857;53.484;10.216;2023-04-06T08:45:31;6.40;;;4.33;;
13571;SDS011;6857;53.484;10.216;2023-04-06T08:47:57;6.23;;;4.47;;
13571;SDS011;6857;53.484;10.216;2023-04-06T08:50:26;6.73;;;4.63;;
13571;SDS011;6857;53.484;10.216;2023-04-06T08:52:53;7.43;;;4.43;;
13571;SDS011;6857;53.484;10.216;2023-04-06T08:55:19;6.80;;;4.43;;
13571;SDS011;6857;53.484;10.216;2023-04-06T08:57:45;7.83;;;4.97;;
13571;SDS011;6857;53.484;10.216;2023-04-06T09:00:15;6.30;;;4.60;;
13571;SDS011;6857;53.484;10.216;2023-04-06T09:02:43;7.87;;;4.90;;
13571;SDS011;6857;53.484;10.216;2023-04-06T09:05:10;7.77;;;5.20;;
13571;SDS011;6857;53.484;10.216;2023-04-06T09:07:37;10.23;;;5.43;;
13571;SDS011;6857;53.484;10.216;2023-04-06T09:10:06;5.80;;;4.27;;
13571;SDS011;6857;53.484;10.216;2023-04-06T09:12:32;9.07;;;4.57;;
13571;SDS011;6857;53.484;10.216;2023-04-06T09:14:59;6.50;;;4.23;;
13571;SDS011;6857;53.484;10.216;2023-04-06T09:17:26;6.13;;;4.27;;
13571;SDS011;6857;53.484;10.216;2023-04-06T09:19:52;6.17;;;3.87;;
13571;SDS011;6857;53.484;10.216;2023-04-06T09:22:19;5.63;;;4.47;;
13571;SDS011;6857;53.484;10.216;2023-04-06T09:27:11;6.13;;;4.30;;
13571;SDS011;6857;53.484;10.216;2023-04-06T09:29:37;7.53;;;4.27;;
13571;SDS011;6857;53.484;10.216;2023-04-06T09:32:07;6.40;;;4.17;;
13571;SDS011;6857;53.484;10.216;2023-04-06T09:34:36;7.70;;;3.87;;
13571;SDS011;6857;53.484;10.216;2023-04-06T09:37:11;5.13;;;3.50;;
13571;SDS011;6857;53.484;10.216;2023-04-06T09:39:37;6.83;;;3.37;;
13571;SDS011;6857;53.484;10.216;2023-04-06T09:42:03;4.63;;;2.87;;
13571;SDS011;6857;53.484;10.216;2023-04-06T09:44:30;3.87;;;2.77;;
13571;SDS011;6857;53.484;10.216;2023-04-06T09:46:56;5.67;;;2.77;;
13571;SDS011;6857;53.484;10.216;2023-04-06T09:49:22;5.60;;;3.10;;
13571;SDS011;6857;53.484;10.216;2023-04-06T09:51:58;5.47;;;3.10;;
13571;SDS011;6857;53.484;10.216;2023-04-06T09:54:26;4.97;;;2.87;;
13571;SDS011;6857;53.484;10.216;2023-04-06T09:57:07;6.30;;;3.40;;
13571;SDS011;6857;53.484;10.216;2023-04-06T10:02:05;5.57;;;2.97;;
13571;SDS011;6857;53.484;10.216;2023-04-06T10:07:03;5.53;;;3.67;;
13571;SDS011;6857;53.484;10.216;2023-04-06T10:09:30;5.57;;;3.87;;
13571;SDS011;6857;53.484;10.216;2023-04-06T10:12:02;5.53;;;3.60;;
13571;SDS011;6857;53.484;10.216;2023-04-06T10:14:28;5.23;;;3.63;;
13571;SDS011;6857;53.484;10.216;2023-04-06T10:16:57;7.17;;;3.80;;
13571;SDS011;6857;53.484;10.216;2023-04-06T10:19:25;5.37;;;4.20;;
13571;SDS011;6857;53.484;10.216;2023-04-06T10:21:53;5.73;;;4.10;;
13571;SDS011;6857;53.484;10.216;2023-04-06T10:24:20;4.13;;;3.57;;
13571;SDS011;6857;53.484;10.216;2023-04-06T10:27:02;4.43;;;3.70;;
13571;SDS011;6857;53.484;10.216;2023-04-06T10:29:41;5.97;;;4.53;;
13571;SDS011;6857;53.484;10.216;2023-04-06T10:32:08;5.87;;;4.53;;
13571;SDS011;6857;53.484;10.216;2023-04-06T10:34:35;8.13;;;4.30;;
13571;SDS011;6857;53.484;10.216;2023-04-06T10:37:10;5.93;;;4.13;;
13571;SDS011;6857;53.484;10.216;2023-04-06T10:39:44;6.17;;;4.30;;
13571;SDS011;6857;53.484;10.216;2023-04-06T10:42:11;6.73;;;3.63;;
13571;SDS011;6857;53.484;10.216;2023-04-06T10:44:41;6.40;;;4.37;;
13571;SDS011;6857;53.484;10.216;2023-04-06T10:47:15;6.03;;;4.60;;
13571;SDS011;6857;53.484;10.216;2023-04-06T10:49:41;6.07;;;4.40;;
13571;SDS011;6857;53.484;10.216;2023-04-06T10:52:07;7.93;;;5.13;;
13571;SDS011;6857;53.484;10.216;2023-04-06T10:54:35;7.60;;;4.97;;
13571;SDS011;6857;53.484;10.216;2023-04-06T10:57:06;7.03;;;4.50;;
13571;SDS011;6857;53.484;10.216;2023-04-06T10:59:32;5.57;;;4.60;;
13571;SDS011;6857;53.484;10.216;2023-04-06T11:01:58;5.67;;;4.77;;
13571;SDS011;6857;53.484;10.216;2023-04-06T11:04:24;6.67;;;4.80;;
13571;SDS011;6857;53.484;10.216;2023-04-06T11:06:50;7.17;;;5.03;;
13571;SDS011;6857;53.484;10.216;2023-04-06T11:09:23;6.83;;;4.73;;
13571;SDS011;6857;53.484;10.216;2023-04-06T11:11:52;6.37;;;4.93;;
13571;SDS011;6857;53.484;10.216;2023-04-06T11:14:21;7.20;;;5.40;;
13571;SDS011;6857;53.484;10.216;2023-04-06T11:16:48;7.23;;;5.43;;
13571;SDS011;6857;53.484;10.216;2023-04-06T11:19:15;7.70;;;4.90;;
13571;SDS011;6857;53.484;10.216;2023-04-06T11:24:12;7.07;;;5.30;;
13571;SDS011;6857;53.484;10.216;2023-04-06T11:26:39;7.13;;;5.80;;
13571;SDS011;6857;53.484;10.216;2023-04-06T11:29:05;8.50;;;5.57;;
13571;SDS011;6857;53.484;10.216;2023-04-06T11:31:31;7.33;;;5.90;;
13571;SDS011;6857;53.484;10.216;2023-04-06T11:34:08;7.63;;;6.00;;
13571;SDS011;6857;53.484;10.216;2023-04-06T11:36:34;10.07;;;6.47;;
13571;SDS011;6857;53.484;10.216;2023-04-06T11:39:02;8.57;;;6.27;;
13571;SDS011;6857;53.484;10.216;2023-04-06T11:41:28;9.70;;;6.20;;
13571;SDS011;6857;53.484;10.216;2023-04-06T11:43:55;12.37;;;6.17;;
13571;SDS011;6857;53.484;10.216;2023-04-06T11:46:21;7.93;;;6.13;;
13571;SDS011;6857;53.484;10.216;2023-04-06T11:48:47;8.40;;;5.63;;
13571;SDS011;6857;53.484;10.216;2023-04-06T11:51:21;14.90;;;7.27;;
13571;SDS011;6857;53.484;10.216;2023-04-06T11:53:47;9.97;;;5.77;;
13571;SDS011;6857;53.484;10.216;2023-04-06T11:56:27;6.73;;;5.50;;
13571;SDS011;6857;53.484;10.216;2023-04-06T11:58:57;6.83;;;5.20;;
13571;SDS011;6857;53.484;10.216;2023-04-06T12:01:24;9.57;;;5.73;;
13571;SDS011;6857;53.484;10.216;2023-04-06T12:03:50;7.10;;;5.43;;
13571;SDS011;6857;53.484;10.216;2023-04-06T12:06:16;7.63;;;5.43;;
13571;SDS011;6857;53.484;10.216;2023-04-06T12:08:42;7.10;;;5.50;;
13571;SDS011;6857;53.484;10.216;2023-04-06T12:11:09;8.53;;;5.97;;
13571;SDS011;6857;53.484;10.216;2023-04-06T12:13:35;9.27;;;6.10;;
13571;SDS011;6857;53.484;10.216;2023-04-06T12:16:01;6.80;;;5.77;;
13571;SDS011;6857;53.484;10.216;2023-04-06T12:18:27;9.20;;;5.77;;
13571;SDS011;6857;53.484;10.216;2023-04-06T12:20:53;9.33;;;5.97;;
13571;SDS011;6857;53.484;10.216;2023-04-06T12:23:19;7.57;;;5.77;;
13571;SDS011;6857;53.484;10.216;2023-04-06T12:25:45;9.80;;;6.00;;
13571;SDS011;6857;53.484;10.216;2023-04-06T12:28:12;8.07;;;6.10;;
13571;SDS011;6857;53.484;10.216;2023-04-06T12:30:38;8.90;;;5.87;;
13571;SDS011;6857;53.484;10.216;2023-04-06T12:33:06;8.20;;;6.17;;
13571;SDS011;6857;53.484;10.216;2023-04-06T12:35:33;8.17;;;5.77;;
13571;SDS011;6857;53.484;10.216;2023-04-06T12:37:59;8.27;;;5.77;;
13571;SDS011;6857;53.484;10.216;2023-04-06T12:40:25;7.20;;;6.33;;
13571;SDS011;6857;53.484;10.216;2023-04-06T12:42:51;8.80;;;6.03;;
13571;SDS011;6857;53.484;10.216;2023-04-06T12:45:17;10.03;;;5.87;;
13571;SDS011;6857;53.484;10.216;2023-04-06T12:47:43;7.47;;;5.90;;
13571;SDS011;6857;53.484;10.216;2023-04-06T12:50:09;7.23;;;6.50;;
13571;SDS011;6857;53.484;10.216;2023-04-06T12:52:35;7.53;;;6.10;;
13571;SDS011;6857;53.484;10.216;2023-04-06T12:55:02;8.07;;;6.30;;
13571;SDS011;6857;53.484;10.216;2023-04-06T12:57:28;6.17;;;5.50;;
13571;SDS011;6857;53.484;10.216;2023-04-06T12:59:54;7.53;;;6.23;;
13571;SDS011;6857;53.484;10.216;2023-04-06T13:02:21;6.50;;;5.30;;
13571;SDS011;6857;53.484;10.216;2023-04-06T13:04:48;9.33;;;6.40;;
13571;SDS011;6857;53.484;10.216;2023-04-06T13:07:14;9.27;;;6.30;;
13571;SDS011;6857;53.484;10.216;2023-04-06T13:09:40;8.37;;;5.83;;
13571;SDS011;6857;53.484;10.216;2023-04-06T13:12:08;7.87;;;6.10;;
13571;SDS011;6857;53.484;10.216;2023-04-06T13:14:34;7.53;;;6.00;;
13571;SDS011;6857;53.484;10.216;2023-04-06T13:17:00;7.60;;;6.37;;
13571;SDS011;6857;53.484;10.216;2023-04-06T13:19:26;9.27;;;6.17;;
13571;SDS011;6857;53.484;10.216;2023-04-06T13:21:52;10.43;;;6.73;;
13571;SDS011;6857;53.484;10.216;2023-04-06T13:24:18;7.90;;;5.80;;
13571;SDS011;6857;53.484;10.216;2023-04-06T13:26:45;12.20;;;6.60;;
13571;SDS011;6857;53.484;10.216;2023-04-06T13:29:11;8.47;;;6.30;;
13571;SDS011;6857;53.484;10.216;2023-04-06T13:31:37;7.50;;;6.30;;
13571;SDS011;6857;53.484;10.216;2023-04-06T13:34:03;9.00;;;6.33;;
13571;SDS011;6857;53.484;10.216;2023-04-06T13:36:29;10.47;;;6.87;;
13571;SDS011;6857;53.484;10.216;2023-04-06T13:38:57;8.80;;;5.90;;
13571;SDS011;6857;53.484;10.216;2023-04-06T13:41:23;8.27;;;6.50;;
13571;SDS011;6857;53.484;10.216;2023-04-06T13:43:50;8.93;;;6.90;;
13571;SDS011;6857;53.484;10.216;2023-04-06T13:46:16;8.83;;;7.03;;
13571;SDS011;6857;53.484;10.216;2023-04-06T13:48:42;7.83;;;6.57;;
13571;SDS011;6857;53.484;10.216;2023-04-06T13:51:09;9.90;;;7.47;;
13571;SDS011;6857;53.484;10.216;2023-04-06T13:53:35;8.27;;;6.47;;
13571;SDS011;6857;53.484;10.216;2023-04-06T13:56:01;6.97;;;6.27;;
13571;SDS011;6857;53.484;10.216;2023-04-06T13:58:27;8.00;;;6.90;;
13571;SDS011;6857;53.484;10.216;2023-04-06T14:00:53;8.10;;;6.23;;
13571;SDS011;6857;53.484;10.216;2023-04-06T14:03:19;6.70;;;6.00;;
13571;SDS011;6857;53.484;10.216;2023-04-06T14:05:45;7.53;;;6.43;;
13571;SDS011;6857;53.484;10.216;2023-04-06T14:08:11;11.37;;;6.90;;
13571;SDS011;6857;53.484;10.216;2023-04-06T14:10:38;7.83;;;7.03;;
13571;SDS011;6857;53.484;10.216;2023-04-06T14:13:05;7.17;;;6.07;;
13571;SDS011;6857;53.484;10.216;2023-04-06T14:15:31;9.43;;;6.63;;
13571;SDS011;6857;53.484;10.216;2023-04-06T14:17:57;7.13;;;6.43;;
13571;SDS011;6857;53.484;10.216;2023-04-06T14:20:23;7.80;;;6.83;;
13571;SDS011;6857;53.484;10.216;2023-04-06T14:22:48;7.40;;;6.23;;
13571;SDS011;6857;53.484;10.216;2023-04-06T14:25:17;8.80;;;6.60;;
13571;SDS011;6857;53.484;10.216;2023-04-06T14:27:43;7.63;;;6.60;;
13571;SDS011;6857;53.484;10.216;2023-04-06T14:30:09;10.03;;;6.97;;
13571;SDS011;6857;53.484;10.216;2023-04-06T14:32:35;8.10;;;6.03;;
13571;SDS011;6857;53.484;10.216;2023-04-06T14:35:02;8.60;;;7.17;;
13571;SDS011;6857;53.484;10.216;2023-04-06T14:37:28;8.17;;;6.70;;
13571;SDS011;6857;53.484;10.216;2023-04-06T14:39:55;8.93;;;6.27;;
13571;SDS011;6857;53.484;10.216;2023-04-06T14:42:21;8.23;;;6.77;;
13571;SDS011;6857;53.484;10.216;2023-04-06T14:44:47;8.50;;;6.67;;
13571;SDS011;6857;53.484;10.216;2023-04-06T14:47:13;7.10;;;5.90;;
13571;SDS011;6857;53.484;10.216;2023-04-06T14:49:45;7.43;;;5.83;;
13571;SDS011;6857;53.484;10.216;2023-04-06T14:52:11;8.23;;;6.23;;